Time;durP1;ratioP1;P1;durP2;ratioP2;P2;SDS_P1;SDS_P2;PMS_P1;PMS_P2;Temp;Humidity;BMP_temperature;BMP_pressure;BME280_temperature;BME280_humidity;BME280_pressure;Samples;Min_cycle;Max_cycle;Signal;HPM_P1;HPM_P2
2021/06/18 00:00:26;;;;;;;11.00;2.20;;;16.60;99.90;;;;;;6215590;23;19996;-82
2021/06/18 00:02:52;;;;;;;6.00;1.92;;;16.60;99.90;;;;;;6215854;23;20003;-82
2021/06/18 00:05:18;;;;;;;10.45;2.35;;;16.70;99.90;;;;;;6216332;23;20008;-82
2021/06/18 00:07:45;;;;;;;5.22;2.10;;;16.80;99.90;;;;;;6189668;23;20001;-82
2021/06/18 00:10:13;;;;;;;5.45;2.38;;;16.90;99.90;;;;;;6189472;23;20004;-82
2021/06/18 00:12:39;;;;;;;15.38;2.88;;;16.90;99.90;;;;;;6215310;23;20389;-82
2021/06/18 00:15:07;;;;;;;5.65;3.10;;;16.90;99.90;;;;;;6216017;23;19996;-82
2021/06/18 00:17:33;;;;;;;8.93;2.38;;;16.80;99.90;;;;;;6215434;23;20094;-82
2021/06/18 00:19:59;;;;;;;9.05;2.17;;;16.50;99.90;;;;;;6215977;23;20358;-82
2021/06/18 00:22:24;;;;;;;5.53;2.08;;;16.50;99.90;;;;;;6216066;23;20004;-82
2021/06/18 00:24:50;;;;;;;6.65;2.47;;;16.40;99.90;;;;;;6215891;23;20001;-82
2021/06/18 00:27:16;;;;;;;6.05;2.15;;;16.50;99.90;;;;;;6215524;23;20001;-82
2021/06/18 00:29:42;;;;;;;7.63;1.85;;;16.50;99.90;;;;;;6188662;23;20005;-82
2021/06/18 00:32:07;;;;;;;6.38;1.50;;;16.30;99.90;;;;;;6215145;23;20005;-82
2021/06/18 00:34:33;;;;;;;8.60;1.52;;;16.30;99.90;;;;;;6215411;23;20024;-82
2021/06/18 00:36:59;;;;;;;5.82;1.85;;;16.10;99.90;;;;;;6215646;23;20328;-82
2021/06/18 00:39:25;;;;;;;7.45;2.10;;;16.20;99.90;;;;;;6215470;23;19996;-82
2021/06/18 00:41:51;;;;;;;9.45;2.30;;;16.30;99.90;;;;;;6215560;23;20027;-82
2021/06/18 00:44:17;;;;;;;6.47;2.30;;;16.40;99.90;;;;;;6215871;23;20063;-82
2021/06/18 00:46:44;;;;;;;4.00;2.08;;;16.40;99.90;;;;;;6215129;23;20024;-82
2021/06/18 00:49:11;;;;;;;7.18;2.55;;;16.40;99.90;;;;;;6215896;23;20462;-82
2021/06/18 00:51:38;;;;;;;9.38;3.30;;;16.00;99.90;;;;;;6215436;23;19996;-82
2021/06/18 00:54:05;;;;;;;7.13;2.83;;;15.80;99.90;;;;;;6215808;23;20003;-82
2021/06/18 00:56:31;;;;;;;6.50;2.45;;;16.00;99.90;;;;;;6188675;23;20054;-82
2021/06/18 00:58:57;;;;;;;4.95;3.17;;;16.10;99.90;;;;;;6214871;23;19996;-83
2021/06/18 01:01:23;;;;;;;8.60;2.53;;;15.90;99.90;;;;;;6215580;23;20024;-83
2021/06/18 01:03:49;;;;;;;5.18;2.38;;;15.70;99.90;;;;;;6215067;23;19997;-82
2021/06/18 01:06:23;;;;;;;9.57;3.20;;;15.80;99.90;;;;;;6215671;23;20023;-82
2021/06/18 01:09:03;;;;;;;8.05;2.15;;;15.90;99.90;;;;;;6215421;23;20004;-82
2021/06/18 01:11:45;;;;;;;8.32;2.15;;;16.00;99.90;;;;;;6214876;23;20039;-82
2021/06/18 01:14:27;;;;;;;4.30;1.75;;;16.00;99.90;;;;;;6215092;23;19997;-82
2021/06/18 01:17:03;;;;;;;39.60;2.88;;;15.70;99.90;;;;;;6215482;23;20012;-82
2021/06/18 01:20:04;;;;;;;22.92;2.78;;;15.40;99.90;;;;;;6215118;23;20316;-82
2021/06/18 01:22:32;;;;;;;12.15;3.22;;;15.20;99.90;;;;;;6215057;23;20004;-82
2021/06/18 01:25:14;;;;;;;3.97;1.70;;;15.50;99.90;;;;;;6215402;23;20442;-82
2021/06/18 01:28:02;;;;;;;4.88;2.63;;;15.60;99.90;;;;;;6214862;23;20051;-83
2021/06/18 01:30:30;;;;;;;8.23;2.53;;;15.50;99.90;;;;;;6215082;23;20068;-83
2021/06/18 01:33:04;;;;;;;5.05;2.42;;;15.60;99.90;;;;;;6214698;23;20454;-82
2021/06/18 01:35:52;;;;;;;7.88;2.88;;;15.70;99.90;;;;;;6215267;23;19993;-82
2021/06/18 01:38:21;;;;;;;6.45;2.53;;;15.60;99.90;;;;;;6214355;23;20019;-82
2021/06/18 01:40:51;;;;;;;6.30;3.05;;;15.50;99.90;;;;;;6214472;23;20011;-82
2021/06/18 01:43:20;;;;;;;8.27;2.63;;;15.60;99.90;;;;;;6214563;23;19997;-82
2021/06/18 01:45:48;;;;;;;10.07;2.60;;;15.60;99.90;;;;;;6215208;23;20457;-82
2021/06/18 01:48:16;;;;;;;5.70;2.08;;;15.40;99.90;;;;;;6215333;23;20004;-83
2021/06/18 01:50:43;;;;;;;16.67;2.08;;;15.30;99.90;;;;;;6214742;23;20046;-83
2021/06/18 01:53:12;;;;;;;9.80;2.67;;;14.80;99.90;;;;;;6214616;23;20330;-83
2021/06/18 01:55:41;;;;;;;14.43;3.20;;;14.60;99.90;;;;;;6215240;23;20001;-83
2021/06/18 01:58:10;;;;;;;13.93;3.33;;;14.70;99.90;;;;;;6214367;23;20001;-83
2021/06/18 02:00:40;;;;;;;7.03;3.08;;;14.80;99.90;;;;;;6188230;23;19997;-83
2021/06/18 02:03:10;;;;;;;7.05;3.15;;;15.00;99.90;;;;;;6215126;23;20047;-83
2021/06/18 02:05:38;;;;;;;37.58;5.15;;;15.00;99.90;;;;;;6215146;23;20008;-83
2021/06/18 02:08:09;;;;;;;35.75;4.75;;;15.00;99.90;;;;;;6214934;23;19997;-83
2021/06/18 02:10:36;;;;;;;30.75;3.85;;;15.00;99.90;;;;;;6217198;23;20477;-83
2021/06/18 02:13:05;;;;;;;41.75;4.03;;;14.90;99.90;;;;;;6214278;23;20001;-83
2021/06/18 02:15:32;;;;;;;8.57;2.83;;;14.80;99.90;;;;;;6214982;23;20001;-83
2021/06/18 02:17:58;;;;;;;5.28;2.65;;;14.80;99.90;;;;;;6214423;23;19997;-83
2021/06/18 02:20:25;;;;;;;4.60;2.95;;;14.50;99.90;;;;;;6214952;23;20076;-83
2021/06/18 02:22:52;;;;;;;4.43;4.03;;;14.40;99.90;;;;;;6187238;23;20004;-83
2021/06/18 02:25:19;;;;;;;3.45;3.10;;;14.40;99.90;;;;;;6214918;23;20067;-83
2021/06/18 02:27:45;;;;;;;6.18;3.67;;;14.60;99.90;;;;;;6214081;23;19996;-83
2021/06/18 02:30:13;;;;;;;3.40;2.20;;;14.70;99.90;;;;;;6214724;23;20083;-84
2021/06/18 02:32:41;;;;;;;5.72;2.80;;;14.60;99.90;;;;;;6214392;23;20079;-83
2021/06/18 02:35:08;;;;;;;5.70;2.50;;;14.40;99.90;;;;;;6214529;23;19997;-83
2021/06/18 02:37:34;;;;;;;3.88;2.10;;;14.30;99.90;;;;;;6187909;23;20017;-84
2021/06/18 02:40:00;;;;;;;7.40;2.42;;;14.40;99.90;;;;;;6214597;23;20020;-84
2021/06/18 02:42:26;;;;;;;11.85;3.50;;;14.20;99.90;;;;;;6214226;23;20457;-83
2021/06/18 02:44:53;;;;;;;4.38;3.75;;;14.30;99.90;;;;;;6214345;23;19996;-83
2021/06/18 02:47:51;;;;;;;7.88;4.80;;;14.10;99.90;;;;;;6214664;23;20339;-83
2021/06/18 02:50:36;;;;;;;5.18;2.97;;;14.10;99.90;;;;;;6214950;23;20003;-83
2021/06/18 02:53:30;;;;;;;5.75;2.88;;;14.20;99.90;;;;;;6214348;23;19997;-83
2021/06/18 02:56:38;;;;;;;5.68;2.47;;;14.20;99.90;;;;;;6187090;23;20351;-83
2021/06/18 02:59:22;;;;;;;5.13;2.20;;;14.20;99.90;;;;;;6214372;23;19996;-83
2021/06/18 03:01:51;;;;;;;4.55;2.72;;;14.20;99.90;;;;;;6214423;23;20458;-83
2021/06/18 03:04:23;;;;;;;3.40;2.53;;;14.10;99.90;;;;;;6214579;23;20001;-83
2021/06/18 03:06:52;;;;;;;4.53;2.67;;;14.00;99.90;;;;;;6214601;23;20409;-83
2021/06/18 03:09:26;;;;;;;5.07;3.28;;;14.10;99.90;;;;;;6214596;23;20001;-83
2021/06/18 03:11:55;;;;;;;9.95;3.65;;;14.10;99.90;;;;;;6213961;23;20025;-84
2021/06/18 03:14:23;;;;;;;4.25;3.05;;;14.00;99.90;;;;;;6214579;23;20000;-84
2021/06/18 03:16:56;;;;;;;7.97;4.78;;;14.10;99.90;;;;;;6214437;23;20031;-84
2021/06/18 03:19:25;;;;;;;6.22;3.30;;;14.10;99.90;;;;;;6214623;23;20020;-84
2021/06/18 03:21:51;;;;;;;5.70;2.78;;;14.10;99.90;;;;;;6188471;23;20011;-84
2021/06/18 03:24:19;;;;;;;8.00;2.40;;;14.00;99.90;;;;;;6212979;23;20004;-84
2021/06/18 03:26:45;;;;;;;9.80;3.25;;;13.80;99.90;;;;;;6214366;23;20047;-84
2021/06/18 03:29:12;;;;;;;7.03;3.10;;;13.70;99.90;;;;;;6214057;23;20004;-84
2021/06/18 03:31:41;;;;;;;8.15;3.10;;;13.80;99.90;;;;;;6214361;23;19997;-84
2021/06/18 03:34:06;;;;;;;5.57;3.10;;;13.80;99.90;;;;;;6214597;23;19993;-84
2021/06/18 03:36:33;;;;;;;7.60;4.10;;;13.90;99.90;;;;;;6216087;23;20058;-85
2021/06/18 03:38:59;;;;;;;5.18;3.00;;;13.80;99.90;;;;;;6215540;23;20118;-84
2021/06/18 03:41:25;;;;;;;5.18;3.45;;;13.90;99.90;;;;;;6189762;23;20001;-84
2021/06/18 03:43:52;;;;;;;7.22;4.30;;;14.00;99.90;;;;;;6216144;23;19997;-85
2021/06/18 03:46:20;;;;;;;5.18;2.78;;;14.00;99.90;;;;;;6216503;23;20067;-84
2021/06/18 03:48:46;;;;;;;5.43;3.45;;;13.90;99.90;;;;;;6189730;23;19997;-84
2021/06/18 03:51:12;;;;;;;5.00;3.03;;;13.90;99.90;;;;;;6215555;23;20059;-84
2021/06/18 03:53:38;;;;;;;10.90;3.67;;;13.80;99.90;;;;;;6188884;23;20007;-84
2021/06/18 03:56:06;;;;;;;22.25;4.72;;;13.80;99.90;;;;;;6215773;23;19996;-85
2021/06/18 03:58:33;;;;;;;9.15;3.10;;;13.70;99.90;;;;;;6215492;23;20000;-85
2021/06/18 04:01:00;;;;;;;6.60;4.03;;;13.70;99.90;;;;;;6216076;23;19997;-85
2021/06/18 04:03:27;;;;;;;9.68;3.58;;;13.70;99.90;;;;;;6216220;23;20326;-85
2021/06/18 04:05:59;;;;;;;7.63;4.30;;;13.50;99.90;;;;;;6215785;23;19997;-85
2021/06/18 04:08:25;;;;;;;7.00;3.75;;;13.70;99.90;;;;;;6215637;23;20004;-85
2021/06/18 04:10:51;;;;;;;14.00;4.13;;;13.80;99.90;;;;;;6215529;23;20442;-85
2021/06/18 04:13:17;;;;;;;11.95;3.95;;;13.70;99.90;;;;;;6215681;23;20347;-85
2021/06/18 04:15:45;;;;;;;10.48;3.97;;;13.60;99.90;;;;;;6216097;23;19996;-84
2021/06/18 04:18:12;;;;;;;9.38;3.22;;;13.60;99.90;;;;;;6215822;23;19993;-85
2021/06/18 04:20:38;;;;;;;31.83;4.30;;;13.60;99.90;;;;;;6215540;23;20000;-85
2021/06/18 04:23:05;;;;;;;23.88;4.00;;;13.40;99.90;;;;;;6215676;23;20442;-85
2021/06/18 04:25:30;;;;;;;29.48;4.30;;;13.20;99.90;;;;;;6215249;23;20003;-85
2021/06/18 04:27:59;;;;;;;37.10;4.18;;;13.30;99.90;;;;;;6216107;23;20028;-83
2021/06/18 04:30:24;;;;;;;11.90;4.30;;;13.10;99.90;;;;;;6215164;23;20338;-84
2021/06/18 04:32:50;;;;;;;5.35;4.45;;;13.30;99.90;;;;;;6215534;23;19997;-84
2021/06/18 04:35:16;;;;;;;7.38;4.57;;;13.50;99.90;;;;;;6215795;23;20000;-84
2021/06/18 04:37:42;;;;;;;7.15;3.80;;;13.60;99.90;;;;;;6215283;23;20462;-84
2021/06/18 04:40:09;;;;;;;4.97;3.25;;;13.50;99.90;;;;;;6215641;23;19997;-84
2021/06/18 04:42:35;;;;;;;5.80;4.00;;;13.40;99.90;;;;;;6215166;23;20007;-83
2021/06/18 04:45:02;;;;;;;8.25;4.15;;;13.40;99.90;;;;;;6214441;23;19996;-84
2021/06/18 04:47:28;;;;;;;7.82;3.83;;;13.40;99.90;;;;;;6188590;23;20009;-84
2021/06/18 04:49:53;;;;;;;6.40;4.22;;;13.50;99.90;;;;;;6215191;23;20001;-84
2021/06/18 04:52:19;;;;;;;5.25;3.47;;;13.40;99.90;;;;;;6214783;23;19997;-84
2021/06/18 04:54:50;;;;;;;7.05;3.58;;;13.30;99.90;;;;;;6215006;23;19996;-84
2021/06/18 04:57:16;;;;;;;7.43;4.00;;;13.10;99.90;;;;;;6188953;23;20335;-84
2021/06/18 04:59:42;;;;;;;4.00;3.47;;;13.40;99.90;;;;;;6188070;23;20084;-85
2021/06/18 05:02:08;;;;;;;6.80;3.38;;;13.40;99.90;;;;;;6215694;23;20043;-84
2021/06/18 05:04:33;;;;;;;5.90;3.90;;;13.40;99.90;;;;;;6188495;23;20000;-84
2021/06/18 05:06:59;;;;;;;4.53;3.92;;;13.50;99.90;;;;;;6215228;23;20004;-85
2021/06/18 05:09:25;;;;;;;8.93;4.25;;;13.60;99.90;;;;;;6214924;23;20075;-85
2021/06/18 05:11:51;;;;;;;5.25;3.30;;;13.60;99.90;;;;;;6214928;23;20000;-84
2021/06/18 05:14:16;;;;;;;6.20;3.70;;;13.60;99.90;;;;;;6215063;23;20003;-84
2021/06/18 05:16:42;;;;;;;8.27;4.03;;;13.60;99.90;;;;;;6215041;23;19993;-84
2021/06/18 05:19:11;;;;;;;5.47;3.13;;;13.70;99.90;;;;;;6214764;23;19992;-84
2021/06/18 05:21:37;;;;;;;7.95;3.60;;;13.70;99.90;;;;;;6214247;23;20003;-83
2021/06/18 05:24:03;;;;;;;7.03;3.22;;;13.70;99.90;;;;;;6214577;23;19997;-84
2021/06/18 05:26:30;;;;;;;7.88;3.78;;;13.70;99.90;;;;;;6214161;23;20007;-85
2021/06/18 05:28:56;;;;;;;6.35;4.20;;;13.80;99.90;;;;;;6214771;23;20001;-84
2021/06/18 05:31:22;;;;;;;10.30;4.95;;;13.90;99.90;;;;;;6214798;23;20080;-82
2021/06/18 05:33:49;;;;;;;6.85;3.72;;;13.90;99.90;;;;;;6214954;23;20015;-84
2021/06/18 05:36:15;;;;;;;7.88;3.90;;;14.00;99.90;;;;;;6214490;23;20048;-84
2021/06/18 05:38:41;;;;;;;7.07;4.88;;;14.10;99.90;;;;;;6214822;23;20020;-84
2021/06/18 05:41:07;;;;;;;10.60;4.18;;;14.30;99.90;;;;;;6208853;23;20450;-83
2021/06/18 05:43:32;;;;;;;8.48;4.53;;;14.40;99.90;;;;;;6213481;23;20000;-84
2021/06/18 05:45:58;;;;;;;6.57;4.57;;;14.50;99.90;;;;;;6213753;23;20163;-84
2021/06/18 05:48:24;;;;;;;9.68;4.22;;;14.60;99.90;;;;;;6214524;23;20000;-84
2021/06/18 05:50:53;;;;;;;10.88;4.57;;;14.60;99.90;;;;;;6213684;23;20483;-83
2021/06/18 05:53:23;;;;;;;11.82;4.55;;;14.70;99.90;;;;;;6213843;23;20011;-83
2021/06/18 05:55:49;;;;;;;10.25;4.10;;;14.80;99.90;;;;;;6213964;23;20417;-82
2021/06/18 05:58:15;;;;;;;12.90;5.07;;;14.70;99.90;;;;;;6214451;23;20020;-83
2021/06/18 06:00:42;;;;;;;7.78;4.43;;;14.70;99.90;;;;;;6187555;23;20043;-82
2021/06/18 06:03:10;;;;;;;10.55;4.30;;;14.90;99.90;;;;;;6214172;23;20027;-83
2021/06/18 06:05:36;;;;;;;9.05;3.90;;;15.00;99.90;;;;;;6213152;23;20035;-82
2021/06/18 06:08:03;;;;;;;14.88;4.63;;;15.10;99.90;;;;;;6214712;23;20071;-84
2021/06/18 06:10:29;;;;;;;7.50;4.25;;;15.20;99.90;;;;;;6214202;23;20446;-84
2021/06/18 06:12:54;;;;;;;8.77;5.40;;;15.40;99.90;;;;;;6214280;23;20001;-84
2021/06/18 06:15:21;;;;;;;9.48;4.20;;;15.60;99.90;;;;;;6213368;23;20509;-84
2021/06/18 06:17:47;;;;;;;7.25;4.40;;;15.80;99.90;;;;;;6187178;23;20001;-83
2021/06/18 06:20:14;;;;;;;6.85;4.53;;;15.90;99.90;;;;;;6213964;23;20004;-82
2021/06/18 06:22:39;;;;;;;9.88;4.38;;;16.00;99.90;;;;;;6214040;23;20079;-81
2021/06/18 06:25:06;;;;;;;8.93;4.82;;;16.00;99.90;;;;;;6187607;23;20489;-81
2021/06/18 06:27:31;;;;;;;13.35;5.40;;;15.90;99.90;;;;;;6213414;23;20027;-82
2021/06/18 06:29:57;;;;;;;8.82;5.45;;;15.90;99.90;;;;;;6213731;23;20030;-84
2021/06/18 06:32:23;;;;;;;7.45;4.68;;;15.90;99.90;;;;;;6214347;23;20001;-81
2021/06/18 06:34:48;;;;;;;12.63;4.80;;;16.00;99.90;;;;;;6185940;23;20000;-83
2021/06/18 06:37:14;;;;;;;11.57;5.15;;;16.10;99.90;;;;;;6213824;23;20013;-83
2021/06/18 06:39:40;;;;;;;9.43;3.60;;;16.30;99.90;;;;;;6213964;23;20000;-82
2021/06/18 06:42:06;;;;;;;5.03;3.80;;;16.40;99.90;;;;;;6213953;23;20024;-81
2021/06/18 06:44:33;;;;;;;8.73;4.05;;;16.40;99.90;;;;;;6214117;23;20024;-81
2021/06/18 06:46:58;;;;;;;9.93;4.13;;;16.60;99.90;;;;;;6212904;23;20005;-83
2021/06/18 06:49:27;;;;;;;9.23;4.88;;;16.70;99.90;;;;;;6214061;23;20001;-82
2021/06/18 06:51:53;;;;;;;11.30;5.55;;;16.90;99.90;;;;;;6213919;23;20068;-81
2021/06/18 06:54:18;;;;;;;13.43;4.13;;;17.20;99.90;;;;;;6214488;23;20082;-83
2021/06/18 06:56:45;;;;;;;7.53;4.18;;;17.40;99.90;;;;;;6213213;23;20001;-81
2021/06/18 06:59:11;;;;;;;8.10;4.40;;;17.60;99.90;;;;;;6213507;23;19993;-81
2021/06/18 07:01:37;;;;;;;9.02;5.10;;;17.70;99.90;;;;;;6213144;23;20050;-81
2021/06/18 07:04:03;;;;;;;8.00;4.43;;;17.80;99.90;;;;;;6213783;23;20000;-81
2021/06/18 07:06:32;;;;;;;9.07;4.60;;;17.90;99.90;;;;;;6214262;23;20001;-81
2021/06/18 07:08:58;;;;;;;8.07;4.38;;;17.80;99.90;;;;;;6213354;23;20595;-81
2021/06/18 07:11:24;;;;;;;7.35;3.90;;;17.70;99.90;;;;;;6213517;23;20079;-81
2021/06/18 07:13:50;;;;;;;8.30;4.72;;;17.60;99.90;;;;;;6213638;23;19993;-81
2021/06/18 07:16:16;;;;;;;8.10;4.03;;;17.50;99.90;;;;;;6213638;23;20008;-81
2021/06/18 07:18:41;;;;;;;6.05;4.50;;;17.70;99.90;;;;;;6213977;23;19996;-81
2021/06/18 07:21:07;;;;;;;5.80;4.60;;;17.80;99.90;;;;;;6212606;23;20509;-81
2021/06/18 07:23:33;;;;;;;6.50;4.40;;;17.80;99.90;;;;;;6212711;23;20007;-81
2021/06/18 07:25:59;;;;;;;8.30;5.55;;;18.00;99.90;;;;;;6185803;23;20075;-81
2021/06/18 07:28:25;;;;;;;6.60;5.03;;;18.10;99.90;;;;;;6213533;23;20000;-81
2021/06/18 07:30:51;;;;;;;7.18;4.72;;;18.10;99.90;;;;;;6207231;23;20000;-83
2021/06/18 07:33:16;;;;;;;6.13;3.90;;;18.20;99.90;;;;;;6212394;23;20076;-82
2021/06/18 07:35:43;;;;;;;7.03;4.40;;;18.20;99.90;;;;;;6213496;23;20000;-83
2021/06/18 07:38:08;;;;;;;7.25;4.22;;;18.40;99.90;;;;;;6213286;23;20201;-81
2021/06/18 07:40:34;;;;;;;5.35;4.03;;;18.50;99.90;;;;;;6213486;23;20370;-81
2021/06/18 07:43:00;;;;;;;5.32;3.90;;;18.50;99.90;;;;;;6187497;23;20001;-81
2021/06/18 07:45:26;;;;;;;5.60;3.47;;;18.60;99.90;;;;;;6213885;23;20004;-81
2021/06/18 07:47:53;;;;;;;4.85;3.78;;;18.60;99.90;;;;;;6207512;23;20001;-81
2021/06/18 07:50:20;;;;;;;8.23;3.17;;;18.80;99.90;;;;;;6213366;23;20020;-83
2021/06/18 07:52:46;;;;;;;5.93;3.47;;;18.90;99.90;;;;;;6213064;23;20004;-81
2021/06/18 07:55:17;;;;;;;8.95;3.45;;;19.20;99.90;;;;;;6212522;23;20096;-80
2021/06/18 07:57:43;;;;;;;5.63;3.88;;;19.40;99.90;;;;;;6213114;23;20098;-80
2021/06/18 08:00:10;;;;;;;12.27;3.13;;;19.50;99.90;;;;;;6212806;23;20092;-80
2021/06/18 08:02:36;;;;;;;9.60;3.35;;;19.70;99.90;;;;;;6212666;23;20000;-82
2021/06/18 08:05:02;;;;;;;4.40;3.13;;;19.90;99.90;;;;;;6213711;23;20007;-82
2021/06/18 08:07:28;;;;;;;5.68;3.50;;;20.00;99.90;;;;;;6213216;23;20004;-80
2021/06/18 08:09:54;;;;;;;6.10;2.75;;;20.30;99.90;;;;;;6213418;23;20323;-81
2021/06/18 08:12:21;;;;;;;7.88;3.38;;;20.30;99.90;;;;;;6213045;23;20051;-81
2021/06/18 08:14:47;;;;;;;5.82;2.53;;;20.30;99.90;;;;;;6213336;23;19996;-81
2021/06/18 08:17:13;;;;;;;6.05;3.22;;;20.40;99.90;;;;;;6213478;23;20522;-81
2021/06/18 08:19:39;;;;;;;4.43;2.25;;;20.50;99.90;;;;;;6213717;23;20027;-81
2021/06/18 08:22:05;;;;;;;5.35;2.83;;;20.40;99.90;;;;;;6214352;23;20469;-81
2021/06/18 08:24:33;;;;;;;6.05;3.40;;;20.50;99.90;;;;;;6215359;23;19996;-81
2021/06/18 08:26:58;;;;;;;5.88;3.10;;;20.70;99.90;;;;;;6215676;23;20512;-82
2021/06/18 08:29:24;;;;;;;3.30;2.85;;;20.80;99.90;;;;;;6214824;23;20004;-81
2021/06/18 08:31:50;;;;;;;4.90;2.60;;;20.90;99.90;;;;;;6215305;23;19997;-81
2021/06/18 08:34:16;;;;;;;4.68;2.50;;;20.90;99.90;;;;;;6214898;23;20439;-81
2021/06/18 08:36:43;;;;;;;6.22;3.13;;;21.10;99.90;;;;;;6214836;23;20466;-80
2021/06/18 08:39:09;;;;;;;5.60;3.10;;;21.20;99.90;;;;;;6188571;23;19997;-81
2021/06/18 08:41:35;;;;;;;4.97;2.88;;;21.50;99.90;;;;;;6215382;23;19997;-81
2021/06/18 08:44:01;;;;;;;6.20;3.17;;;21.60;99.90;;;;;;6214678;23;19996;-81
2021/06/18 08:46:26;;;;;;;5.72;3.08;;;21.80;99.90;;;;;;6210786;23;19992;-80
2021/06/18 08:48:52;;;;;;;7.70;3.05;;;21.90;99.90;;;;;;6214722;23;20382;-82
2021/06/18 08:51:19;;;;;;;5.80;3.25;;;22.10;99.90;;;;;;6215023;23;20316;-80
2021/06/18 08:53:46;;;;;;;7.97;2.95;;;22.30;99.90;;;;;;6215040;23;20043;-80
2021/06/18 08:56:12;;;;;;;3.42;2.75;;;22.30;99.90;;;;;;6214620;23;19997;-80
2021/06/18 08:58:38;;;;;;;6.07;2.90;;;22.50;99.90;;;;;;6214631;23;19992;-80
2021/06/18 09:01:04;;;;;;;9.07;2.67;;;22.80;99.90;;;;;;6215173;23;20054;-82
2021/06/18 09:03:41;;;;;;;4.68;2.97;;;22.80;99.90;;;;;;6214768;23;20072;-81
2021/06/18 09:06:25;;;;;;;5.50;2.67;;;22.60;99.90;;;;;;6214899;23;20004;-80
2021/06/18 09:09:10;;;;;;;7.95;2.65;;;22.90;99.90;;;;;;6214995;23;19996;-80
2021/06/18 09:11:44;;;;;;;3.08;2.40;;;23.10;99.90;;;;;;6188150;23;20088;-83
2021/06/18 09:14:26;;;;;;;4.63;2.75;;;23.20;99.90;;;;;;6214367;23;19996;-81
2021/06/18 09:17:20;;;;;;;5.97;2.55;;;23.30;99.90;;;;;;6188307;23;20004;-81
2021/06/18 09:19:58;;;;;;;5.55;2.63;;;23.20;99.90;;;;;;6214434;23;20043;-81
2021/06/18 09:22:37;;;;;;;3.08;2.28;;;23.30;99.90;;;;;;6216463;23;20007;-81
2021/06/18 09:25:13;;;;;;;5.57;2.95;;;23.40;99.90;;;;;;6214198;23;20004;-81
2021/06/18 09:27:42;;;;;;;5.00;2.17;;;23.80;99.90;;;;;;6214185;23;20015;-80
2021/06/18 09:30:26;;;;;;;6.20;2.78;;;23.90;99.90;;;;;;6214743;23;20005;-80
2021/06/18 09:33:24;;;;;;;5.13;2.40;;;24.20;99.90;;;;;;6213744;23;20004;-81
2021/06/18 09:36:08;;;;;;;6.68;3.10;;;24.80;99.90;;;;;;6214115;23;20019;-80
2021/06/18 09:38:47;;;;;;;4.85;2.55;;;25.10;99.90;;;;;;6214127;23;19999;-80
2021/06/18 09:41:41;;;;;;;5.85;2.75;;;25.30;99.90;;;;;;6214350;23;20171;-80
2021/06/18 09:44:19;;;;;;;4.15;2.17;;;25.00;99.90;;;;;;6214074;23;20310;-81
2021/06/18 09:46:48;;;;;;;6.53;2.70;;;24.90;99.90;;;;;;6213657;23;19997;-81
2021/06/18 09:49:30;;;;;;;4.45;2.03;;;25.30;99.90;;;;;;6214896;23;19993;-81
2021/06/18 09:52:11;;;;;;;5.00;2.53;;;25.60;99.90;;;;;;6214059;23;20011;-81
2021/06/18 09:54:42;;;;;;;4.13;2.35;;;25.30;99.90;;;;;;6214380;23;20004;-81
2021/06/18 09:57:10;;;;;;;4.88;2.30;;;25.50;99.90;;;;;;6214523;23;19996;-81
2021/06/18 09:59:56;;;;;;;4.45;2.50;;;25.60;99.90;;;;;;6187617;23;20051;-82
2021/06/18 10:02:41;;;;;;;6.70;2.75;;;25.80;99.90;;;;;;6214344;23;20334;-81
2021/06/18 10:05:12;;;;;;;5.25;2.47;;;25.90;99.90;;;;;;6214475;23;19997;-82
2021/06/18 10:07:39;;;;;;;11.32;4.22;;;26.00;99.90;;;;;;6214766;23;20011;-81
2021/06/18 10:10:09;;;;;;;6.13;2.97;;;26.40;99.90;;;;;;6214683;23;20000;-81
2021/06/18 10:12:35;;;;;;;5.22;3.13;;;26.30;99.90;;;;;;6214923;23;20004;-81
2021/06/18 10:15:07;;;;;;;4.85;2.17;;;26.70;99.90;;;;;;6215021;23;19993;-80
2021/06/18 10:17:35;;;;;;;6.43;2.28;;;26.90;99.90;;;;;;6214974;23;20312;-80
2021/06/18 10:20:03;;;;;;;5.72;2.38;;;27.00;99.90;;;;;;6214826;23;19997;-80
2021/06/18 10:22:32;;;;;;;5.57;2.83;;;26.90;99.90;;;;;;6215058;23;20004;-80
2021/06/18 10:25:07;;;;;;;4.50;2.47;;;26.50;99.90;;;;;;6214387;23;20377;-80
2021/06/18 10:27:39;;;;;;;4.07;2.60;;;29.20;99.90;;;;;;6214939;23;20012;-80
2021/06/18 10:30:31;;;;;;;5.00;2.50;;;32.90;99.90;;;;;;6214787;23;20004;-80
2021/06/18 10:33:00;;;;;;;5.00;2.90;;;35.10;99.90;;;;;;6214554;23;20000;-80
2021/06/18 10:35:51;;;;;;;20.95;4.05;;;35.10;99.90;;;;;;6214980;23;19997;-80
2021/06/18 10:38:38;;;;;;;5.90;3.00;;;36.60;99.90;;;;;;6214939;23;20546;-80
2021/06/18 10:41:16;;;;;;;3.10;2.67;;;36.50;99.90;;;;;;6214321;23;20007;-80
2021/06/18 10:43:46;;;;;;;4.30;2.70;;;36.50;99.90;;;;;;6214228;23;20067;-80
2021/06/18 10:46:13;;;;;;;6.00;3.22;;;36.80;99.90;;;;;;6215458;23;20300;-80
2021/06/18 10:48:51;;;;;;;6.40;2.40;;;37.70;99.90;;;;;;6214481;23;20001;-81
2021/06/18 10:51:26;;;;;;;4.10;2.50;;;39.00;99.90;;;;;;6214617;23;19996;-80
2021/06/18 10:53:54;;;;;;;4.70;2.70;;;39.10;97.80;;;;;;6214130;23;20007;-80
2021/06/18 10:56:40;;;;;;;2.92;2.65;;;38.10;97.30;;;;;;6214859;23;20338;-80
2021/06/18 10:59:09;;;;;;;4.10;2.20;;;37.60;93.90;;;;;;6214592;23;20001;-81
2021/06/18 11:01:35;;;;;;;5.53;2.17;;;36.90;95.80;;;;;;6214556;23;20007;-80
2021/06/18 11:04:03;;;;;;;3.17;2.80;;;37.20;99.00;;;;;;6214496;23;20127;-80
2021/06/18 11:06:44;;;;;;;5.10;2.63;;;38.20;97.40;;;;;;6214685;23;20068;-81
2021/06/18 11:09:30;;;;;;;3.92;2.65;;;37.80;94.70;;;;;;6214333;23;20075;-80
2021/06/18 11:11:56;;;;;;;6.60;2.85;;;37.50;96.30;;;;;;6213396;23;20512;-81
2021/06/18 11:14:36;;;;;;;5.97;2.72;;;37.90;96.60;;;;;;6214565;23;19996;-80
2021/06/18 11:17:02;;;;;;;8.82;3.03;;;38.20;93.40;;;;;;6214592;23;20064;-80
2021/06/18 11:19:28;;;;;;;3.20;2.10;;;38.70;95.30;;;;;;6214519;23;20027;-80
2021/06/18 11:21:55;;;;;;;4.57;2.40;;;37.00;92.60;;;;;;6214330;23;19996;-80
2021/06/18 11:24:40;;;;;;;7.38;3.10;;;35.60;97.00;;;;;;6214332;23;20024;-80
2021/06/18 11:27:23;;;;;;;4.68;2.42;;;36.80;94.40;;;;;;6214488;23;20003;-81
2021/06/18 11:30:28;;;;;;;5.45;2.83;;;38.60;92.30;;;;;;6214279;23;20000;-81
2021/06/18 11:32:55;;;;;;;3.88;2.20;;;39.50;90.40;;;;;;6214247;23;19997;-82
2021/06/18 11:35:33;;;;;;;8.23;3.75;;;37.80;90.90;;;;;;6187679;23;20080;-82
2021/06/18 11:38:09;;;;;;;4.90;2.40;;;38.90;89.50;;;;;;6213726;23;20016;-81
2021/06/18 11:40:35;;;;;;;4.00;2.55;;;35.10;93.40;;;;;;6214728;23;19996;-82
2021/06/18 11:43:01;;;;;;;3.15;2.60;;;33.10;98.20;;;;;;6214324;23;20339;-81
2021/06/18 11:45:36;;;;;;;4.97;2.67;;;35.80;96.20;;;;;;6214492;23;20001;-81
2021/06/18 11:48:03;;;;;;;6.07;2.58;;;37.20;91.20;;;;;;6214207;23;20007;-80
2021/06/18 11:50:38;;;;;;;3.50;2.70;;;36.50;91.40;;;;;;6214351;23;20004;-80
2021/06/18 11:53:04;;;;;;;4.60;3.00;;;37.00;90.30;;;;;;6213748;23;19997;-80
2021/06/18 11:55:30;;;;;;;5.30;2.78;;;37.10;86.10;;;;;;6215257;23;19996;-80
2021/06/18 11:57:56;;;;;;;7.63;2.67;;;37.50;91.70;;;;;;6216176;23;19996;-80
2021/06/18 12:00:34;;;;;;;6.78;3.30;;;37.80;83.20;;;;;;6216251;23;20046;-80
2021/06/18 12:03:01;;;;;;;3.78;2.88;;;36.50;88.50;;;;;;6216077;23;20462;-80
2021/06/18 12:05:34;;;;;;;8.20;3.28;;;36.90;87.40;;;;;;6216298;23;20007;-80
2021/06/18 12:08:11;;;;;;;6.60;3.20;;;36.90;87.20;;;;;;6215924;23;20068;-80
2021/06/18 12:10:37;;;;;;;8.38;3.22;;;38.30;81.40;;;;;;6216278;23;20001;-80
2021/06/18 12:13:03;;;;;;;5.15;2.97;;;39.60;81.60;;;;;;6215987;23;20438;-80
2021/06/18 12:15:32;;;;;;;3.60;3.30;;;38.60;78.20;;;;;;6216260;23;19997;-79
2021/06/18 12:18:03;;;;;;;8.70;3.10;;;38.80;80.80;;;;;;6216516;23;19997;-80
2021/06/18 12:20:41;;;;;;;6.03;3.30;;;37.30;69.00;;;;;;6215773;23;20023;-80
2021/06/18 12:23:13;;;;;;;4.88;2.80;;;36.90;76.60;;;;;;6216167;23;20028;-79
2021/06/18 12:25:39;;;;;;;6.28;3.85;;;36.70;71.00;;;;;;6216531;23;20007;-79
2021/06/18 12:28:05;;;;;;;7.75;3.05;;;36.70;76.90;;;;;;6216111;23;20000;-79
2021/06/18 12:30:34;;;;;;;4.80;2.83;;;37.40;77.80;;;;;;6216258;23;20001;-79
2021/06/18 12:33:02;;;;;;;4.75;3.00;;;38.20;75.60;;;;;;6215985;23;20006;-79
2021/06/18 12:35:43;;;;;;;5.20;3.45;;;39.00;71.00;;;;;;6215555;23;20004;-79
2021/06/18 12:38:12;;;;;;;4.90;2.75;;;38.50;75.90;;;;;;6215940;23;20009;-79
2021/06/18 12:40:39;;;;;;;6.05;2.33;;;37.80;71.40;;;;;;6216042;23;20023;-79
2021/06/18 12:43:13;;;;;;;11.50;3.05;;;39.10;70.70;;;;;;6215833;23;20075;-79
2021/06/18 12:45:44;;;;;;;6.90;3.33;;;38.40;65.00;;;;;;6216156;23;20003;-79
2021/06/18 12:48:12;;;;;;;13.65;3.25;;;38.90;67.20;;;;;;6215580;23;20004;-79
2021/06/18 12:50:40;;;;;;;6.85;3.40;;;38.50;71.50;;;;;;6215616;23;20008;-79
2021/06/18 12:53:12;;;;;;;5.53;3.05;;;38.70;62.00;;;;;;6215762;23;20514;-79
2021/06/18 12:55:37;;;;;;;2.35;2.15;;;39.70;60.40;;;;;;6215908;23;20011;-79
2021/06/18 12:58:06;;;;;;;3.88;2.88;;;38.40;61.30;;;;;;6215685;23;20071;-79